sensor_id;sensor_type;location;lat;lon;timestamp;pressure;altitude;pressure_sealevel;temperature;humidity
41688;BME280;27371;42.686;23.362;2023-04-30T00:00:50;165080.94;;;11.06;70.38
41688;BME280;27371;42.686;23.362;2023-04-30T00:03:15;165067.56;;;11.01;70.26
41688;BME280;27371;42.686;23.362;2023-04-30T00:05:41;164984.66;;;10.69;70.21
41688;BME280;27371;42.686;23.362;2023-04-30T00:08:06;165035.47;;;10.88;69.91
41688;BME280;27371;42.686;23.362;2023-04-30T00:10:32;164969.97;;;10.63;69.81
41688;BME280;27371;42.686;23.362;2023-04-30T00:12:57;164999.38;;;10.75;69.98
41688;BME280;27371;42.686;23.362;2023-04-30T00:15:23;164969.97;;;10.63;69.91
41688;BME280;27371;42.686;23.362;2023-04-30T00:17:48;164979.34;;;10.67;69.85
41688;BME280;27371;42.686;23.362;2023-04-30T00:20:14;164955.28;;;10.58;69.83
41688;BME280;27371;42.686;23.362;2023-04-30T00:22:39;164913.84;;;10.42;69.97
41688;BME280;27371;42.686;23.362;2023-04-30T00:25:05;164944.59;;;10.54;69.98
41688;BME280;27371;42.686;23.362;2023-04-30T00:27:31;164941.91;;;10.53;70.17
41688;BME280;27371;42.686;23.362;2023-04-30T00:29:57;164924.56;;;10.46;70.10
41688;BME280;27371;42.686;23.362;2023-04-30T00:32:22;164939.25;;;10.52;69.74
41688;BME280;27371;42.686;23.362;2023-04-30T00:34:48;164928.59;;;10.47;69.70
41688;BME280;27371;42.686;23.362;2023-04-30T00:37:13;164853.69;;;10.19;69.36
41688;BME280;27371;42.686;23.362;2023-04-30T00:39:39;164879.13;;;10.29;69.66
41688;BME280;27371;42.686;23.362;2023-04-30T00:42:05;164864.41;;;10.23;69.83
41688;BME280;27371;42.686;23.362;2023-04-30T00:44:30;164872.41;;;10.26;69.96
41688;BME280;27371;42.686;23.362;2023-04-30T00:46:56;164865.72;;;10.23;70.30
41688;BME280;27371;42.686;23.362;2023-04-30T00:49:21;164852.34;;;10.18;70.21
41688;BME280;27371;42.686;23.362;2023-04-30T00:51:47;164825.63;;;10.08;70.60
41688;BME280;27371;42.686;23.362;2023-04-30T00:54:13;164829.66;;;10.10;70.83
41688;BME280;27371;42.686;23.362;2023-04-30T00:56:39;164780.22;;;9.91;70.98
41688;BME280;27371;42.686;23.362;2023-04-30T00:59:05;164794.91;;;9.96;71.51
41688;BME280;27371;42.686;23.362;2023-04-30T01:01:31;164806.94;;;10.01;71.72
41688;BME280;27371;42.686;23.362;2023-04-30T01:03:56;164793.56;;;9.96;71.43
41688;BME280;27371;42.686;23.362;2023-04-30T01:06:22;164818.94;;;10.06;71.04
41688;BME280;27371;42.686;23.362;2023-04-30T01:08:49;164808.28;;;10.01;71.42
41688;BME280;27371;42.686;23.362;2023-04-30T01:11:47;164773.53;;;9.88;71.44
41688;BME280;27371;42.686;23.362;2023-04-30T01:14:29;164796.22;;;9.97;71.96
41688;BME280;27371;42.686;23.362;2023-04-30T01:21:57;164772.22;;;9.88;72.25
41688;BME280;27371;42.686;23.362;2023-04-30T01:25:33;164772.22;;;9.88;72.56
41688;BME280;27371;42.686;23.362;2023-04-30T01:30:30;164748.13;;;9.78;73.04
41688;BME280;27371;42.686;23.362;2023-04-30T01:32:56;164732.13;;;9.72;73.65
41688;BME280;27371;42.686;23.362;2023-04-30T01:36:03;164714.78;;;9.66;73.92
41688;BME280;27371;42.686;23.362;2023-04-30T01:38:19;164713.44;;;9.65;74.20
41688;BME280;27371;42.686;23.362;2023-04-30T01:41:12;164714.78;;;9.66;73.99
41688;BME280;27371;42.686;23.362;2023-04-30T01:46:47;164726.75;;;9.70;73.65
41688;BME280;27371;42.686;23.362;2023-04-30T01:52:17;164724.09;;;9.69;73.60
41688;BME280;27371;42.686;23.362;2023-04-30T01:57:28;164724.09;;;9.69;73.75
41688;BME280;27371;42.686;23.362;2023-04-30T01:59:57;164733.44;;;9.73;73.64
41688;BME280;27371;42.686;23.362;2023-04-30T02:02:22;164737.47;;;9.74;73.62
41688;BME280;27371;42.686;23.362;2023-04-30T02:04:48;164737.47;;;9.74;73.49
41688;BME280;27371;42.686;23.362;2023-04-30T02:07:24;164740.13;;;9.75;73.36
41688;BME280;27371;42.686;23.362;2023-04-30T02:09:51;164717.44;;;9.67;73.64
41688;BME280;27371;42.686;23.362;2023-04-30T02:12:17;164740.13;;;9.75;73.66
41688;BME280;27371;42.686;23.362;2023-04-30T02:14:42;164724.09;;;9.69;73.96
41688;BME280;27371;42.686;23.362;2023-04-30T02:17:08;164737.47;;;9.74;73.88
41688;BME280;27371;42.686;23.362;2023-04-30T02:19:33;164657.34;;;9.44;74.17
41688;BME280;27371;42.686;23.362;2023-04-30T02:21:58;164732.13;;;9.72;74.28
41688;BME280;27371;42.686;23.362;2023-04-30T02:24:24;164730.78;;;9.72;74.46
41688;BME280;27371;42.686;23.362;2023-04-30T02:26:50;164706.75;;;9.63;74.33
41688;BME280;27371;42.686;23.362;2023-04-30T02:29:15;164721.44;;;9.68;74.65
41688;BME280;27371;42.686;23.362;2023-04-30T02:31:41;164718.75;;;9.67;74.77
41688;BME280;27371;42.686;23.362;2023-04-30T02:34:07;164713.44;;;9.65;74.72
41688;BME280;27371;42.686;23.362;2023-04-30T02:36:32;164705.44;;;9.62;74.65
41688;BME280;27371;42.686;23.362;2023-04-30T02:39:00;164684.06;;;9.54;74.83
41688;BME280;27371;42.686;23.362;2023-04-30T02:41:26;164704.06;;;9.62;74.77
41688;BME280;27371;42.686;23.362;2023-04-30T02:43:51;164702.72;;;9.61;74.76
41688;BME280;27371;42.686;23.362;2023-04-30T02:46:17;164697.38;;;9.59;74.46
41688;BME280;27371;42.686;23.362;2023-04-30T02:48:43;164705.44;;;9.62;74.58
41688;BME280;27371;42.686;23.362;2023-04-30T02:51:08;164709.41;;;9.64;74.78
41688;BME280;27371;42.686;23.362;2023-04-30T02:53:35;164716.09;;;9.66;74.75
41688;BME280;27371;42.686;23.362;2023-04-30T02:56:01;164713.44;;;9.65;74.67
41688;BME280;27371;42.686;23.362;2023-04-30T02:58:26;164689.38;;;9.56;74.95
41688;BME280;27371;42.686;23.362;2023-04-30T03:00:51;164717.44;;;9.67;75.10
41688;BME280;27371;42.686;23.362;2023-04-30T03:03:17;164721.44;;;9.68;74.95
41688;BME280;27371;42.686;23.362;2023-04-30T03:05:42;164722.78;;;9.69;74.77
41688;BME280;27371;42.686;23.362;2023-04-30T03:08:08;164749.50;;;9.79;74.98
41688;BME280;27371;42.686;23.362;2023-04-30T03:10:33;164745.47;;;9.77;74.99
41688;BME280;27371;42.686;23.362;2023-04-30T03:12:59;164742.81;;;9.76;75.21
41688;BME280;27371;42.686;23.362;2023-04-30T03:15:25;164733.44;;;9.73;75.34
41688;BME280;27371;42.686;23.362;2023-04-30T03:17:51;164744.16;;;9.77;75.40
41688;BME280;27371;42.686;23.362;2023-04-30T03:20:16;164758.84;;;9.82;75.30
41688;BME280;27371;42.686;23.362;2023-04-30T03:22:42;164745.47;;;9.77;75.00
41688;BME280;27371;42.686;23.362;2023-04-30T03:25:08;164773.53;;;9.88;75.19
41688;BME280;27371;42.686;23.362;2023-04-30T03:27:34;164784.19;;;9.92;75.32
41688;BME280;27371;42.686;23.362;2023-04-30T03:29:59;164782.88;;;9.92;74.92
41688;BME280;27371;42.686;23.362;2023-04-30T03:32:24;164769.50;;;9.87;74.49
41688;BME280;27371;42.686;23.362;2023-04-30T03:34:50;164764.19;;;9.85;74.68
41688;BME280;27371;42.686;23.362;2023-04-30T03:37:15;164721.44;;;9.68;74.94
41688;BME280;27371;42.686;23.362;2023-04-30T03:39:41;164749.50;;;9.79;75.07
41688;BME280;27371;42.686;23.362;2023-04-30T03:42:06;164785.56;;;9.93;75.34
41688;BME280;27371;42.686;23.362;2023-04-30T03:44:32;164794.91;;;9.96;75.21
41688;BME280;27371;42.686;23.362;2023-04-30T03:46:57;164778.88;;;9.90;75.08
41688;BME280;27371;42.686;23.362;2023-04-30T03:49:23;164798.94;;;9.98;74.89
41688;BME280;27371;42.686;23.362;2023-04-30T03:51:48;164758.84;;;9.82;75.37
41688;BME280;27371;42.686;23.362;2023-04-30T03:54:14;164732.13;;;9.72;75.64
41688;BME280;27371;42.686;23.362;2023-04-30T03:56:39;164706.75;;;9.63;75.41
41688;BME280;27371;42.686;23.362;2023-04-30T03:59:05;164729.47;;;9.71;75.50
41688;BME280;27371;42.686;23.362;2023-04-30T04:01:31;164741.50;;;9.76;75.42
41688;BME280;27371;42.686;23.362;2023-04-30T04:03:57;164782.88;;;9.92;75.52
41688;BME280;27371;42.686;23.362;2023-04-30T04:06:23;164761.50;;;9.84;75.84
41688;BME280;27371;42.686;23.362;2023-04-30T04:08:49;164810.94;;;10.02;75.33
41688;BME280;27371;42.686;23.362;2023-04-30T04:11:14;164830.97;;;10.10;74.62
41688;BME280;27371;42.686;23.362;2023-04-30T04:13:40;164805.56;;;10.00;74.58
41688;BME280;27371;42.686;23.362;2023-04-30T04:16:05;164857.72;;;10.20;74.18
41688;BME280;27371;42.686;23.362;2023-04-30T04:18:32;164865.72;;;10.23;74.07
41688;BME280;27371;42.686;23.362;2023-04-30T04:20:58;164875.09;;;10.27;73.67
41688;BME280;27371;42.686;23.362;2023-04-30T04:23:25;164887.16;;;10.32;73.45
41688;BME280;27371;42.686;23.362;2023-04-30T04:25:51;164876.44;;;10.28;73.63
41688;BME280;27371;42.686;23.362;2023-04-30T04:28:17;164892.47;;;10.34;73.51
41688;BME280;27371;42.686;23.362;2023-04-30T04:30:43;164911.19;;;10.41;73.44
41688;BME280;27371;42.686;23.362;2023-04-30T04:33:08;164917.88;;;10.43;73.72
41688;BME280;27371;42.686;23.362;2023-04-30T04:35:35;164884.44;;;10.31;73.55
41688;BME280;27371;42.686;23.362;2023-04-30T04:38:01;164896.47;;;10.35;73.67
41688;BME280;27371;42.686;23.362;2023-04-30T04:40:27;164905.81;;;10.39;73.89
41688;BME280;27371;42.686;23.362;2023-04-30T04:42:52;164892.47;;;10.34;73.29
41688;BME280;27371;42.686;23.362;2023-04-30T04:45:18;164871.06;;;10.25;72.60
41688;BME280;27371;42.686;23.362;2023-04-30T04:47:45;164900.53;;;10.37;72.63
41688;BME280;27371;42.686;23.362;2023-04-30T04:50:11;164953.94;;;10.57;72.49
41688;BME280;27371;42.686;23.362;2023-04-30T04:52:37;164949.91;;;10.56;72.51
41688;BME280;27371;42.686;23.362;2023-04-30T04:55:03;164945.94;;;10.54;72.18
41688;BME280;27371;42.686;23.362;2023-04-30T04:57:29;164947.25;;;10.55;72.48
41688;BME280;27371;42.686;23.362;2023-04-30T04:59:55;164897.81;;;10.36;72.09
41688;BME280;27371;42.686;23.362;2023-04-30T05:02:21;164889.81;;;10.33;72.01
41688;BME280;27371;42.686;23.362;2023-04-30T05:04:48;164809.59;;;10.02;72.64
41688;BME280;27371;42.686;23.362;2023-04-30T05:07:16;164768.19;;;9.86;73.46
41688;BME280;27371;42.686;23.362;2023-04-30T05:09:42;164749.50;;;9.79;74.36
41688;BME280;27371;42.686;23.362;2023-04-30T05:12:07;164741.50;;;9.76;74.58
41688;BME280;27371;42.686;23.362;2023-04-30T05:14:33;164793.56;;;9.96;74.95
41688;BME280;27371;42.686;23.362;2023-04-30T05:16:58;164814.97;;;10.04;75.19
41688;BME280;27371;42.686;23.362;2023-04-30T05:19:24;164808.28;;;10.01;75.45
41688;BME280;27371;42.686;23.362;2023-04-30T05:21:49;164788.22;;;9.94;75.52
41688;BME280;27371;42.686;23.362;2023-04-30T05:24:15;164798.94;;;9.98;75.61
41688;BME280;27371;42.686;23.362;2023-04-30T05:26:41;164808.28;;;10.01;75.58
41688;BME280;27371;42.686;23.362;2023-04-30T05:29:06;164806.94;;;10.01;75.24
41688;BME280;27371;42.686;23.362;2023-04-30T05:31:32;164833.63;;;10.11;75.11
41688;BME280;27371;42.686;23.362;2023-04-30T05:33:57;164832.28;;;10.11;74.38
41688;BME280;27371;42.686;23.362;2023-04-30T05:36:23;164843.00;;;10.15;74.49
41688;BME280;27371;42.686;23.362;2023-04-30T05:38:48;164835.00;;;10.12;74.36
41688;BME280;27371;42.686;23.362;2023-04-30T05:41:13;164852.34;;;10.18;74.40
41688;BME280;27371;42.686;23.362;2023-04-30T05:43:39;164864.41;;;10.23;74.21
41688;BME280;27371;42.686;23.362;2023-04-30T05:46:04;164879.13;;;10.29;74.11
41688;BME280;27371;42.686;23.362;2023-04-30T05:48:30;164900.53;;;10.37;74.04
41688;BME280;27371;42.686;23.362;2023-04-30T05:50:56;164907.19;;;10.39;73.83
41688;BME280;27371;42.686;23.362;2023-04-30T05:53:21;164917.88;;;10.43;73.70
41688;BME280;27371;42.686;23.362;2023-04-30T05:55:47;164915.22;;;10.42;73.40
41688;BME280;27371;42.686;23.362;2023-04-30T05:58:12;164943.28;;;10.53;73.31
41688;BME280;27371;42.686;23.362;2023-04-30T06:00:39;164931.22;;;10.48;72.77
41688;BME280;27371;42.686;23.362;2023-04-30T06:03:05;164924.56;;;10.46;73.16
41688;BME280;27371;42.686;23.362;2023-04-30T06:05:31;164903.19;;;10.38;72.42
41688;BME280;27371;42.686;23.362;2023-04-30T06:07:57;164856.34;;;10.20;72.86
41688;BME280;27371;42.686;23.362;2023-04-30T06:10:22;164806.94;;;10.01;73.40
41688;BME280;27371;42.686;23.362;2023-04-30T06:12:48;164800.25;;;9.98;74.74
41688;BME280;27371;42.686;23.362;2023-04-30T06:15:13;164774.84;;;9.89;75.01
41688;BME280;27371;42.686;23.362;2023-04-30T06:17:39;164756.19;;;9.81;75.73
41688;BME280;27371;42.686;23.362;2023-04-30T06:20:05;164765.53;;;9.85;76.28
41688;BME280;27371;42.686;23.362;2023-04-30T06:22:32;164798.94;;;9.98;76.73
41688;BME280;27371;42.686;23.362;2023-04-30T06:24:58;164868.38;;;10.24;77.02
41688;BME280;27371;42.686;23.362;2023-04-30T06:27:24;164947.25;;;10.55;76.09
41688;BME280;27371;42.686;23.362;2023-04-30T06:29:52;165028.75;;;10.86;74.17
41688;BME280;27371;42.686;23.362;2023-04-30T06:32:18;165094.31;;;11.11;72.77
41688;BME280;27371;42.686;23.362;2023-04-30T06:34:44;165138.41;;;11.28;71.47
41688;BME280;27371;42.686;23.362;2023-04-30T06:37:10;165190.53;;;11.48;70.59
41688;BME280;27371;42.686;23.362;2023-04-30T06:39:35;165272.09;;;11.79;69.21
41688;BME280;27371;42.686;23.362;2023-04-30T06:42:01;165293.56;;;11.87;68.57
41688;BME280;27371;42.686;23.362;2023-04-30T06:44:26;165365.78;;;12.15;67.38
41688;BME280;27371;42.686;23.362;2023-04-30T06:46:52;165472.81;;;12.56;66.32
41688;BME280;27371;42.686;23.362;2023-04-30T06:49:17;165553.06;;;12.86;65.04
41688;BME280;27371;42.686;23.362;2023-04-30T06:51:43;165688.31;;;13.38;63.13
41688;BME280;27371;42.686;23.362;2023-04-30T06:54:08;165803.44;;;13.82;61.35
41688;BME280;27371;42.686;23.362;2023-04-30T06:56:34;165859.69;;;14.03;59.04
41688;BME280;27371;42.686;23.362;2023-04-30T06:58:59;165873.03;;;14.09;58.79
41688;BME280;27371;42.686;23.362;2023-04-30T07:01:24;165883.78;;;14.13;58.90
41688;BME280;27371;42.686;23.362;2023-04-30T07:03:51;165930.63;;;14.31;58.28
41688;BME280;27371;42.686;23.362;2023-04-30T07:06:19;165911.91;;;14.23;58.57
41688;BME280;27371;42.686;23.362;2023-04-30T07:08:45;165923.97;;;14.28;57.56
41688;BME280;27371;42.686;23.362;2023-04-30T07:11:11;165946.72;;;14.37;57.77
41688;BME280;27371;42.686;23.362;2023-04-30T07:13:37;165958.75;;;14.41;57.17
41688;BME280;27371;42.686;23.362;2023-04-30T07:16:04;165972.16;;;14.46;57.11
41688;BME280;27371;42.686;23.362;2023-04-30T07:18:29;165982.88;;;14.51;57.70
41688;BME280;27371;42.686;23.362;2023-04-30T07:20:55;166000.34;;;14.57;57.45
41688;BME280;27371;42.686;23.362;2023-04-30T07:23:21;165993.63;;;14.55;57.03
41688;BME280;27371;42.686;23.362;2023-04-30T07:25:46;165996.34;;;14.56;56.91
41688;BME280;27371;42.686;23.362;2023-04-30T07:28:12;165950.72;;;14.38;56.97
41688;BME280;27371;42.686;23.362;2023-04-30T07:30:38;165926.63;;;14.29;57.75
41688;BME280;27371;42.686;23.362;2023-04-30T07:33:03;165946.72;;;14.37;57.78
41688;BME280;27371;42.686;23.362;2023-04-30T07:35:29;165889.13;;;14.15;58.28
41688;BME280;27371;42.686;23.362;2023-04-30T07:37:58;165902.53;;;14.20;57.79
41688;BME280;27371;42.686;23.362;2023-04-30T07:40:23;165898.50;;;14.18;57.22
41688;BME280;27371;42.686;23.362;2023-04-30T07:42:49;165893.13;;;14.16;57.44
41688;BME280;27371;42.686;23.362;2023-04-30T07:45:14;165906.53;;;14.21;57.54
41688;BME280;27371;42.686;23.362;2023-04-30T07:47:40;165906.53;;;14.21;57.25
41688;BME280;27371;42.686;23.362;2023-04-30T07:50:06;165949.38;;;14.38;56.76
41688;BME280;27371;42.686;23.362;2023-04-30T07:52:31;165980.19;;;14.49;56.09
41688;BME280;27371;42.686;23.362;2023-04-30T07:54:57;166007.03;;;14.60;55.72
41688;BME280;27371;42.686;23.362;2023-04-30T07:57:22;166027.13;;;14.67;54.76
41688;BME280;27371;42.686;23.362;2023-04-30T07:59:50;166083.41;;;14.89;54.40
41688;BME280;27371;42.686;23.362;2023-04-30T08:02:16;166136.97;;;15.09;54.44
41688;BME280;27371;42.686;23.362;2023-04-30T08:04:41;166202.63;;;15.34;53.54
41688;BME280;27371;42.686;23.362;2023-04-30T08:07:07;166301.88;;;15.72;52.44
41688;BME280;27371;42.686;23.362;2023-04-30T08:09:33;166389.00;;;16.06;51.54
41688;BME280;27371;42.686;23.362;2023-04-30T08:11:58;166398.34;;;16.09;50.76
41688;BME280;27371;42.686;23.362;2023-04-30T08:14:24;166527.06;;;16.58;49.15
41688;BME280;27371;42.686;23.362;2023-04-30T08:16:49;166580.75;;;16.79;48.89
41688;BME280;27371;42.686;23.362;2023-04-30T08:21:59;166592.84;;;16.83;47.82
41688;BME280;27371;42.686;23.362;2023-04-30T08:24:25;166600.88;;;16.86;48.08
41688;BME280;27371;42.686;23.362;2023-04-30T08:26:51;166583.47;;;16.80;48.10
41688;BME280;27371;42.686;23.362;2023-04-30T08:29:16;166571.31;;;16.75;48.15
41688;BME280;27371;42.686;23.362;2023-04-30T08:31:42;166578.09;;;16.78;47.97
41688;BME280;27371;42.686;23.362;2023-04-30T08:34:07;166544.47;;;16.65;48.26
41688;BME280;27371;42.686;23.362;2023-04-30T08:36:33;166547.19;;;16.66;48.99
41688;BME280;27371;42.686;23.362;2023-04-30T08:38:58;166511.00;;;16.52;50.34
41688;BME280;27371;42.686;23.362;2023-04-30T08:41:28;166486.81;;;16.43;51.51
41688;BME280;27371;42.686;23.362;2023-04-30T08:44:00;166469.41;;;16.36;51.17
41688;BME280;27371;42.686;23.362;2023-04-30T08:46:28;166450.63;;;16.29;50.39
41688;BME280;27371;42.686;23.362;2023-04-30T08:48:56;166469.41;;;16.36;50.44
41688;BME280;27371;42.686;23.362;2023-04-30T08:51:23;166460.03;;;16.33;50.65
41688;BME280;27371;42.686;23.362;2023-04-30T08:53:50;166462.72;;;16.34;49.67
41688;BME280;27371;42.686;23.362;2023-04-30T08:56:18;166476.13;;;16.39;49.89
41688;BME280;27371;42.686;23.362;2023-04-30T08:58:44;166485.50;;;16.42;49.26
41688;BME280;27371;42.686;23.362;2023-04-30T09:01:09;166517.69;;;16.55;48.11
41688;BME280;27371;42.686;23.362;2023-04-30T09:03:36;166595.53;;;16.84;47.62
41688;BME280;27371;42.686;23.362;2023-04-30T09:06:01;166690.75;;;17.21;46.71
41688;BME280;27371;42.686;23.362;2023-04-30T09:08:44;166771.25;;;17.51;45.76
41688;BME280;27371;42.686;23.362;2023-04-30T09:13:57;166949.72;;;18.19;43.46
41688;BME280;27371;42.686;23.362;2023-04-30T09:16:23;167008.81;;;18.42;42.82
41688;BME280;27371;42.686;23.362;2023-04-30T09:18:50;167020.88;;;18.46;42.69
41688;BME280;27371;42.686;23.362;2023-04-30T09:21:16;167116.22;;;18.83;42.61
41688;BME280;27371;42.686;23.362;2023-04-30T09:24:13;167204.88;;;19.17;42.21
41688;BME280;27371;42.686;23.362;2023-04-30T09:26:39;167289.44;;;19.49;40.52
41688;BME280;27371;42.686;23.362;2023-04-30T09:29:04;167331.06;;;19.65;40.06
41688;BME280;27371;42.686;23.362;2023-04-30T09:31:36;167383.50;;;19.85;39.19
41688;BME280;27371;42.686;23.362;2023-04-30T09:34:02;167392.94;;;19.88;38.44
41688;BME280;27371;42.686;23.362;2023-04-30T09:36:28;167443.97;;;20.08;38.23
41688;BME280;27371;42.686;23.362;2023-04-30T09:38:54;167457.41;;;20.13;38.15
41688;BME280;27371;42.686;23.362;2023-04-30T09:41:29;167446.66;;;20.09;36.92
41688;BME280;27371;42.686;23.362;2023-04-30T09:43:55;167442.66;;;20.07;37.59
41688;BME280;27371;42.686;23.362;2023-04-30T09:46:21;167482.91;;;20.22;37.68
41688;BME280;27371;42.686;23.362;2023-04-30T09:49:12;167484.25;;;20.23;37.58
41688;BME280;27371;42.686;23.362;2023-04-30T09:51:55;167513.81;;;20.34;37.90
41688;BME280;27371;42.686;23.362;2023-04-30T09:54:28;167512.47;;;20.34;38.52
41688;BME280;27371;42.686;23.362;2023-04-30T09:56:56;167507.09;;;20.32;37.49
41688;BME280;27371;42.686;23.362;2023-04-30T09:59:32;167486.97;;;20.24;37.09
41688;BME280;27371;42.686;23.362;2023-04-30T10:02:03;167468.16;;;20.17;37.45
41688;BME280;27371;42.686;23.362;2023-04-30T10:04:30;167419.75;;;19.98;37.75
41688;BME280;27371;42.686;23.362;2023-04-30T10:06:58;167456.03;;;20.12;38.24
41688;BME280;27371;42.686;23.362;2023-04-30T10:09:34;167509.81;;;20.33;36.91
41688;BME280;27371;42.686;23.362;2023-04-30T10:12:04;167505.75;;;20.31;37.04
41688;BME280;27371;42.686;23.362;2023-04-30T10:14:32;167497.69;;;20.28;37.89
41688;BME280;27371;42.686;23.362;2023-04-30T10:17:11;167517.84;;;20.36;37.15
41688;BME280;27371;42.686;23.362;2023-04-30T10:19:39;167536.69;;;20.43;37.82
41688;BME280;27371;42.686;23.362;2023-04-30T10:22:06;167521.91;;;20.37;37.10
41688;BME280;27371;42.686;23.362;2023-04-30T10:24:32;167472.19;;;20.18;37.55
41688;BME280;27371;42.686;23.362;2023-04-30T10:26:58;167423.81;;;20.00;38.25
41688;BME280;27371;42.686;23.362;2023-04-30T10:29:24;167293.47;;;19.50;38.87
41688;BME280;27371;42.686;23.362;2023-04-30T10:31:50;167179.34;;;19.07;39.93
41688;BME280;27371;42.686;23.362;2023-04-30T10:37:10;166906.81;;;18.03;44.76
41688;BME280;27371;42.686;23.362;2023-04-30T10:39:39;166775.25;;;17.53;48.20
41688;BME280;27371;42.686;23.362;2023-04-30T10:42:05;166627.72;;;16.97;51.90
41688;BME280;27371;42.686;23.362;2023-04-30T10:44:37;166532.44;;;16.60;54.31
41688;BME280;27371;42.686;23.362;2023-04-30T10:47:04;166441.25;;;16.25;55.88
41688;BME280;27371;42.686;23.362;2023-04-30T10:49:31;166375.56;;;16.00;55.88
41688;BME280;27371;42.686;23.362;2023-04-30T10:52:01;166366.19;;;15.97;57.76
41688;BME280;27371;42.686;23.362;2023-04-30T10:54:33;166406.41;;;16.12;60.49
41688;BME280;27371;42.686;23.362;2023-04-30T10:57:11;166493.53;;;16.45;63.38
41688;BME280;27371;42.686;23.362;2023-04-30T10:59:41;166545.88;;;16.65;61.09
41688;BME280;27371;42.686;23.362;2023-04-30T11:02:09;166596.88;;;16.85;59.43
41688;BME280;27371;42.686;23.362;2023-04-30T11:07:34;166718.94;;;17.31;53.77
41688;BME280;27371;42.686;23.362;2023-04-30T11:10:00;166768.53;;;17.50;51.28
41688;BME280;27371;42.686;23.362;2023-04-30T11:12:27;166818.19;;;17.69;51.88
41688;BME280;27371;42.686;23.362;2023-04-30T11:15:00;166877.25;;;17.92;50.80
41688;BME280;27371;42.686;23.362;2023-04-30T11:17:26;166920.22;;;18.08;47.89
41688;BME280;27371;42.686;23.362;2023-04-30T11:19:53;166947.06;;;18.18;46.55
41688;BME280;27371;42.686;23.362;2023-04-30T11:22:21;166881.31;;;17.93;46.07
41688;BME280;27371;42.686;23.362;2023-04-30T11:25:02;166839.66;;;17.77;46.99
41688;BME280;27371;42.686;23.362;2023-04-30T11:27:32;166812.84;;;17.67;46.96
41688;BME280;27371;42.686;23.362;2023-04-30T11:29:59;166799.44;;;17.62;46.24
41688;BME280;27371;42.686;23.362;2023-04-30T11:32:31;166755.16;;;17.45;46.48
41688;BME280;27371;42.686;23.362;2023-04-30T11:35:01;166631.75;;;16.98;47.84
41688;BME280;27371;42.686;23.362;2023-04-30T11:40:03;166515.00;;;16.54;52.44
41688;BME280;27371;42.686;23.362;2023-04-30T11:42:30;166468.09;;;16.36;53.98
41688;BME280;27371;42.686;23.362;2023-04-30T11:45:10;166417.16;;;16.16;54.91
41688;BME280;27371;42.686;23.362;2023-04-30T11:47:49;166376.91;;;16.01;57.14
41688;BME280;27371;42.686;23.362;2023-04-30T11:50:20;166421.13;;;16.18;59.92
41688;BME280;27371;42.686;23.362;2023-04-30T11:52:52;166450.63;;;16.29;59.28
41688;BME280;27371;42.686;23.362;2023-04-30T11:55:19;166425.19;;;16.19;57.86
41688;BME280;27371;42.686;23.362;2023-04-30T11:57:47;166409.09;;;16.13;57.32
41688;BME280;27371;42.686;23.362;2023-04-30T12:00:17;166454.66;;;16.31;57.21
41688;BME280;27371;42.686;23.362;2023-04-30T12:02:45;166443.97;;;16.27;55.60
41688;BME280;27371;42.686;23.362;2023-04-30T12:05:15;166461.38;;;16.33;56.23
41688;BME280;27371;42.686;23.362;2023-04-30T12:08:01;166441.25;;;16.25;55.51
41688;BME280;27371;42.686;23.362;2023-04-30T12:10:31;166435.88;;;16.23;55.80
41688;BME280;27371;42.686;23.362;2023-04-30T12:12:56;166352.78;;;15.92;55.02
41688;BME280;27371;42.686;23.362;2023-04-30T12:15:24;166387.66;;;16.05;55.35
41688;BME280;27371;42.686;23.362;2023-04-30T12:17:59;166395.69;;;16.08;55.71
41688;BME280;27371;42.686;23.362;2023-04-30T12:20:35;166362.16;;;15.95;58.08
41688;BME280;27371;42.686;23.362;2023-04-30T12:23:00;166343.44;;;15.88;59.30
41688;BME280;27371;42.686;23.362;2023-04-30T12:25:28;166307.25;;;15.74;59.75
41688;BME280;27371;42.686;23.362;2023-04-30T12:27:54;166232.09;;;15.46;60.88
41688;BME280;27371;42.686;23.362;2023-04-30T12:30:22;166146.34;;;15.13;62.41
41688;BME280;27371;42.686;23.362;2023-04-30T12:32:50;166114.22;;;15.01;62.83
41688;BME280;27371;42.686;23.362;2023-04-30T12:35:18;166080.69;;;14.88;64.04
41688;BME280;27371;42.686;23.362;2023-04-30T12:37:48;166056.59;;;14.79;63.98
41688;BME280;27371;42.686;23.362;2023-04-30T12:40:21;166007.03;;;14.60;64.29
41688;BME280;27371;42.686;23.362;2023-04-30T12:43:07;165978.84;;;14.49;65.06
41688;BME280;27371;42.686;23.362;2023-04-30T12:48:08;165984.22;;;14.51;65.63
41688;BME280;27371;42.686;23.362;2023-04-30T12:50:34;166001.66;;;14.58;65.33
41688;BME280;27371;42.686;23.362;2023-04-30T12:53:03;166020.44;;;14.65;65.62
41688;BME280;27371;42.686;23.362;2023-04-30T12:55:29;166079.38;;;14.87;65.32
41688;BME280;27371;42.686;23.362;2023-04-30T12:58:11;166120.91;;;15.03;64.41
41688;BME280;27371;42.686;23.362;2023-04-30T13:03:09;166241.53;;;15.49;62.18
41688;BME280;27371;42.686;23.362;2023-04-30T13:05:35;166348.75;;;15.90;60.94
41688;BME280;27371;42.686;23.362;2023-04-30T13:08:02;166414.44;;;16.15;58.96
41688;BME280;27371;42.686;23.362;2023-04-30T13:10:30;166465.44;;;16.35;58.17
41688;BME280;27371;42.686;23.362;2023-04-30T13:12:56;166461.38;;;16.33;57.61
41688;BME280;27371;42.686;23.362;2023-04-30T13:15:21;166511.00;;;16.52;57.26
41688;BME280;27371;42.686;23.362;2023-04-30T13:17:47;166528.41;;;16.59;56.82
41688;BME280;27371;42.686;23.362;2023-04-30T13:20:14;166511.00;;;16.52;57.99